Latest Weather Observations for Mangalore

IDV60801

Issued at 9:31 pm EDT Saturday 28 March 2015 (issued every 30 minutes, with the page automatically refreshed every 10 minutes)

About weather observations | Map of weather stations | Latest weather observations for VIC | Other Formats
Station Details ID: 088109 Name: MANGALORE AIRPORT Lat: -36.89 Lon: 145.19 Height: 140.8 m
Data from the previous 72 hours. | See also: Recent months at Mangalore
Date/Time
EDT
Temp
°C
App
Temp
°C
Dew
Point
Rel
Hum
%
Delta-T
°C
Wind Press
QNH
hPa
Press
MSL
hPa
Rain
since 9 am
mm
Dir
 
Spd
km/h
Gust
km/h
Spd
kts
Gust
kts
28/09:30pm 13.2 11.3 6.8 65 3.1 S 6 7 3 4 1022.3 1021.9 0.0
28/09:29pm 13.3 11.3 7.1 66 3.0 S 7 7 4 4 1022.3 1021.9 0.0
28/09:00pm 13.2 11.0 6.3 63 3.3 S 7 7 4 4 1022.0 1021.6 0.0
28/08:30pm 14.9 13.1 7.0 59 3.9 S 6 7 3 4 1021.9 1021.5 0.0
28/08:00pm 15.2 13.3 6.5 56 4.2 S 6 6 3 3 1021.6 1021.2 0.0
28/07:30pm 17.1 15.2 6.6 50 5.2 S 6 9 3 5 1021.4 1021.0 0.0
28/07:00pm 18.7 16.8 6.5 45 6.1 S 6 7 3 4 1021.4 1021.0 0.0
28/06:30pm 19.2 17.0 6.3 43 6.5 S 7 9 4 5 1021.3 1020.9 0.0
28/06:00pm 19.7 17.5 6.4 42 6.7 S 7 11 4 6 1021.4 1021.0 0.0
28/05:30pm 20.5 18.0 6.4 40 7.1 S 9 15 5 8 1021.4 1021.0 0.0
28/05:00pm 20.4 17.5 6.7 41 6.9 SSE 11 17 6 9 1021.7 1021.3 0.0
28/04:30pm 20.3 17.4 6.6 41 6.9 SW 11 17 6 9 1021.9 1021.5 0.0
28/04:00pm 18.9 16.0 6.4 44 6.2 SSW 11 17 6 9 1022.3 1021.9 0.0
28/03:30pm 19.6 17.1 6.7 43 6.5 S 9 19 5 10 1022.6 1022.2 0.0
28/03:00pm 18.6 14.9 6.4 45 6.1 S 15 20 8 11 1023.0 1022.6 0.0
28/02:30pm 18.9 15.4 7.0 46 6.0 S 15 24 8 13 1023.2 1022.8 0.0
28/02:00pm 18.5 15.0 7.0 47 5.8 SSW 15 20 8 11 1023.8 1023.5 0.0
28/01:30pm 17.4 13.8 6.6 49 5.4 S 15 24 8 13 1024.1 1023.8 0.0
28/01:00pm 17.0 13.7 6.5 50 5.2 S 13 20 7 11 1024.5 1024.2 0.0
28/12:30pm 17.5 14.9 7.8 53 4.9 SSE 11 19 6 10 1025.0 1024.7 0.0
28/12:00pm 16.3 13.9 7.0 54 4.6 S 9 19 5 10 1025.5 1025.2 0.0
28/11:30am 15.7 13.0 7.2 57 4.2 SSW 11 17 6 9 1025.9 1025.6 0.0
28/11:00am 14.6 12.2 6.9 60 3.8 SSW 9 13 5 7 1025.9 1025.6 0.0
28/10:30am 14.0 10.9 7.1 63 3.4 SSW 13 17 7 9 1026.0 1025.7 0.0
28/10:00am 12.7 9.8 6.7 67 2.9 SW 11 13 6 7 1026.3 1025.9 0.0
28/09:30am 10.9 8.0 6.6 75 2.0 SSW 11 13 6 7 1026.2 1025.8 0.0
28/08:30am 8.4 5.5 6.4 87 0.9 SW 11 13 6 7 1025.6 1025.3 0.0
28/08:00am 7.1 4.8 5.9 92 0.5 WSW 7 9 4 5 1025.3 1025.0 0.0
28/07:30am 6.4 4.0 5.4 93 0.4 WSW 7 9 4 5 1025.1 1024.8 0.0
28/07:00am 5.0 1.9 3.8 92 0.5 WSW 9 11 5 6 1025.1 1024.8 0.0
28/06:30am 5.8 2.9 4.6 92 0.5 WSW 9 11 5 6 1024.9 1024.6 0.0
28/06:00am 5.0 1.5 3.3 89 0.7 SW 11 13 6 7 1024.8 1024.5 0.0
28/05:30am 5.5 2.9 3.0 84 1.0 SW 6 7 3 4 1024.5 1024.2 0.0
28/05:00am 6.9 4.6 4.9 87 0.9 SW 6 7 3 4 1024.4 1024.1 0.0
28/04:30am 6.3 3.1 2.9 79 1.4 SW 9 13 5 7 1024.4 1024.1 0.0
28/04:00am 8.2 5.5 5.7 84 1.1 SW 9 11 5 6 1024.4 1024.1 0.0
28/03:30am 7.1 4.1 4.1 81 1.3 SW 9 13 5 7 1024.4 1024.1 0.0
28/03:00am 7.7 4.8 4.5 80 1.4 WSW 9 11 5 6 1024.6 1024.3 0.0
28/02:30am 8.2 5.6 4.2 76 1.8 WSW 7 9 4 5 1024.7 1024.4 0.0
28/02:00am 8.2 5.5 3.7 73 1.9 WSW 7 9 4 5 1024.7 1024.4 0.0
28/01:30am 7.4 4.7 2.7 72 2.0 WSW 6 6 3 3 1024.7 1024.4 0.0
28/01:00am 9.1 6.4 3.5 68 2.4 WSW 7 9 4 5 1024.7 1024.4 0.0
28/12:30am 9.8 7.2 4.0 67 2.6 WSW 7 9 4 5 1024.9 1024.6 0.0
28/12:00am 10.6 7.6 4.1 64 2.9 WSW 9 9 5 5 1025.1 1024.8 0.0
 
Date/Time
EDT
Temp
°C
App
Temp
°C
Dew
Point
Rel
Hum
%
Delta-T
°C
Wind Press
QNH
hPa
Press
MSL
hPa
Rain
since 9 am
mm
Dir
 
Spd
km/h
Gust
km/h
Spd
kts
Gust
kts
27/11:30pm 10.6 6.7 3.4 61 3.2 SW 13 15 7 8 1025.0 1024.7 0.0
27/11:00pm 11.7 7.9 3.7 58 3.6 SW 13 15 7 8 1025.0 1024.7 0.0
27/10:30pm 12.6 9.2 3.8 55 4.0 SW 11 17 6 9 1025.0 1024.7 0.0
27/10:00pm 13.3 9.4 3.4 51 4.4 SW 13 20 7 11 1024.8 1024.5 0.0
27/09:30pm 14.2 9.9 3.4 48 4.9 SSW 15 22 8 12 1024.7 1024.4 0.0
27/09:00pm 14.9 10.1 2.8 44 5.4 SSW 17 22 9 12 1024.4 1024.1 0.0
27/08:30pm 15.4 11.0 2.9 43 5.7 SSW 15 22 8 12 1024.1 1023.8 0.0
27/08:00pm 15.6 10.8 2.7 42 5.8 SSW 17 26 9 14 1023.9 1023.6 0.0
27/07:30pm 15.4 10.1 3.2 44 5.6 SSW 20 30 11 16 1023.5 1023.2 0.0
27/07:00pm 15.8 10.8 3.6 44 5.6 SSW 19 26 10 14 1023.3 1022.9 0.0
27/06:30pm 17.5 12.3 3.8 40 6.4 SSW 20 32 11 17 1023.0 1022.6 0.0
27/06:00pm 17.1 11.6 3.8 41 6.2 SSW 22 35 12 19 1022.7 1022.3 0.0
27/05:30pm 17.7 11.6 4.6 42 6.3 S 26 33 14 18 1022.5 1022.1 0.0
27/05:00pm 17.8 13.1 5.1 43 6.1 SSW 19 33 10 18 1022.4 1022.0 0.0
27/04:30pm 17.4 12.4 6.3 48 5.5 S 22 32 12 17 1022.6 1022.2 0.0
27/04:00pm 18.5 13.2 5.0 41 6.5 SSW 22 30 12 16 1022.5 1022.1 0.0
27/03:30pm 17.8 13.2 5.7 45 5.9 SSW 19 26 10 14 1022.8 1022.4 0.0
27/03:00pm 17.9 13.1 5.8 45 5.9 SSW 20 32 11 17 1022.9 1022.5 0.0
27/02:30pm 17.9 13.1 4.5 41 6.4 S 19 28 10 15 1023.0 1022.6 0.0
27/02:00pm 18.7 12.8 4.1 38 6.9 WSW 24 33 13 18 1023.2 1022.8 0.0
27/01:30pm 17.3 11.9 4.6 43 6.1 SW 22 32 12 17 1023.6 1023.3 0.0
27/01:00pm 17.1 12.2 5.1 45 5.8 SW 20 35 11 19 1023.9 1023.6 0.0
27/12:30pm 17.4 12.2 5.4 45 5.8 SW 22 35 12 19 1024.2 1023.9 0.0
27/12:00pm 16.6 12.1 5.9 49 5.2 SW 19 33 10 18 1024.2 1023.9 0.0
27/11:30am 17.2 13.0 7.3 52 5.0 SSW 19 28 10 15 1024.3 1024.0 0.0
27/11:00am 15.1 10.5 6.4 56 4.2 SSW 20 30 11 16 1024.2 1023.9 0.0
27/10:30am 16.2 11.4 7.4 56 4.4 SW 22 33 12 18 1024.0 1023.7 0.0
27/10:00am 14.5 10.3 8.2 66 3.2 SW 20 28 11 15 1024.0 1023.7 0.0
27/09:30am 13.6 11.4 9.3 75 2.2 WSW 11 17 6 9 1023.9 1023.6 0.0
27/09:00am 12.5 10.2 9.1 80 1.7 SW 11 15 6 8 1023.6 1023.3 0.0
27/08:30am 11.6 9.4 9.2 85 1.2 SW 11 15 6 8 1023.3 1022.9 0.0
27/08:00am 10.7 7.5 8.5 86 1.1 WSW 15 19 8 10 1023.0 1022.6 0.0
27/07:30am 10.5 8.1 8.8 89 0.8 WSW 11 15 6 8 1022.8 1022.4 0.0
27/07:00am 10.1 8.5 8.7 91 0.7 W 7 11 4 6 1022.4 1022.0 0.0
27/06:30am 10.2 8.2 8.8 91 0.7 W 9 13 5 7 1022.1 1021.7 0.0
27/06:00am 9.8 8.1 8.4 91 0.7 W 7 11 4 6 1021.8 1021.4 0.0
27/05:30am 9.8 8.1 8.2 90 0.8 W 7 9 4 5 1021.6 1021.2 0.0
27/05:00am 10.2 7.3 8.3 88 0.9 W 13 17 7 9 1021.4 1021.0 0.0
27/04:30am 10.5 9.0 8.4 87 1.0 W 6 7 3 4 1021.6 1021.2 0.0
27/04:00am 10.8 7.3 8.7 87 1.0 WNW 17 20 9 11 1021.3 1020.9 0.0
27/03:30am 10.5 7.7 8.6 88 0.9 WNW 13 19 7 10 1021.2 1020.8 0.0
27/03:00am 11.2 7.8 9.1 87 1.1 W 17 20 9 11 1021.5 1021.1 0.0
27/02:31am 11.4 7.0 9.0 85 1.2 WNW 22 30 12 16 1021.6 1021.2 0.0
27/02:30am 11.4 7.4 9.0 85 1.2 WNW 20 30 11 16 1021.6 1021.2 0.0
27/02:06am 11.6 7.5 8.6 82 1.5 W 20 28 11 15 1021.7 1021.3 0.0
27/02:00am 11.8 7.2 8.3 79 1.7 W 22 28 12 15 1021.7 1021.3 0.0
27/01:30am 11.9 7.7 7.4 74 2.2 WNW 19 24 10 13 1021.3 1020.9 0.0
27/01:00am 12.5 8.3 7.4 71 2.5 WNW 19 28 10 15 1021.5 1021.1 0.0
27/12:30am 12.9 8.6 7.1 68 2.8 WNW 19 28 10 15 1021.4 1021.0 0.0
27/12:00am 13.3 9.3 6.6 64 3.2 WNW 17 26 9 14 1021.3 1020.9 0.0
 
Date/Time
EDT
Temp
°C
App
Temp
°C
Dew
Point
Rel
Hum
%
Delta-T
°C
Wind Press
QNH
hPa
Press
MSL
hPa
Rain
since 9 am
mm
Dir
 
Spd
km/h
Gust
km/h
Spd
kts
Gust
kts
26/11:30pm 13.4 9.4 6.5 63 3.3 W 17 24 9 13 1021.2 1020.8 0.0
26/11:00pm 13.5 9.4 6.1 61 3.5 WNW 17 30 9 16 1021.2 1020.8 0.0
26/10:30pm 13.8 9.7 6.2 60 3.7 W 17 22 9 12 1021.2 1020.8 0.0
26/10:00pm 14.0 7.8 6.1 59 3.8 W 28 35 15 19 1021.0 1020.6 0.0
26/09:30pm 14.8 9.0 4.2 49 4.9 WNW 24 35 13 19 1020.8 1020.4 0.0
26/09:00pm 15.1 9.6 3.9 47 5.2 WNW 22 32 12 17 1020.4 1020.0 0.0
26/08:30pm 15.5 9.8 2.7 42 5.8 WNW 22 32 12 17 1020.1 1019.7 0.0
26/08:00pm 15.8 8.5 2.6 41 6.0 WNW 30 39 16 21 1019.9 1019.5 0.0
26/07:38pm 16.0 9.0 1.7 38 6.4 WNW 28 50 15 27 1019.4 1019.0 0.0
26/07:30pm 16.2 9.1 1.5 37 6.5 WNW 28 39 15 21 1019.4 1019.0 0.0
26/07:00pm 16.2 9.8 1.1 36 6.6 NW 24 33 13 18 1019.1 1018.7 0.0
26/06:38pm 16.1 8.6 1.0 36 6.6 WNW 30 50 16 27 1019.1 1018.7 0.0
26/06:30pm 16.3 9.4 0.4 34 6.9 WNW 26 35 14 19 1019.1 1018.7 0.0
26/06:00pm 16.5 9.5 -0.2 32 7.2 WNW 26 37 14 20 1018.9 1018.5 0.0
26/05:30pm 17.0 9.2 -0.7 30 7.6 WNW 30 41 16 22 1018.5 1018.2 0.0
26/05:07pm 16.8 9.4 -0.9 30 7.5 WNW 28 46 15 25 1018.4 1018.1 0.0
26/05:00pm 16.9 10.6 -0.8 30 7.5 NW 22 33 12 18 1018.5 1018.2 0.0
26/04:30pm 17.2 10.5 -1.0 29 7.7 W 24 35 13 19 1018.4 1018.1 0.0
26/04:00pm 16.9 9.4 -1.2 29 7.6 W 28 39 15 21 1018.5 1018.2 0.0
26/03:30pm 17.9 10.4 -1.3 27 8.2 WNW 28 41 15 22 1018.6 1018.3 0.0
26/03:00pm 16.6 8.8 -1.0 30 7.4 W 30 44 16 24 1018.9 1018.5 0.0
26/02:45pm 18.1 10.3 -0.7 28 8.1 NW 30 48 16 26 1018.9 1018.5 0.0
26/02:30pm 18.5 11.2 -0.3 28 8.2 NW 28 44 15 24 1019.1 1018.7 0.0
26/02:00pm 17.2 10.7 0.4 32 7.3 W 24 39 13 21 1019.4 1019.0 0.0
26/01:30pm 16.4 10.3 0.5 34 6.9 WNW 22 33 12 18 1019.6 1019.2 0.0
26/01:00pm 15.7 9.4 1.4 38 6.3 NW 24 30 13 16 1019.9 1019.5 0.0
26/12:30pm 16.9 11.3 1.4 35 6.9 NW 20 33 11 18 1020.0 1019.6 0.0
26/12:00pm 14.4 8.8 1.3 41 5.7 WNW 20 32 11 17 1020.2 1019.8 0.0
26/11:30am 14.4 9.2 2.3 44 5.4 WNW 19 28 10 15 1020.4 1020.0 0.0
26/11:00am 13.3 9.1 3.9 53 4.3 WNW 15 26 8 14 1020.3 1019.9 0.0
26/10:30am 11.8 8.6 5.0 63 3.1 WNW 11 17 6 9 1020.4 1020.0 0.0
26/10:00am 11.3 8.5 5.2 66 2.8 W 9 19 5 10 1020.2 1019.8 0.0
26/09:30am 10.6 8.0 6.0 73 2.1 WNW 9 11 5 6 1020.1 1019.7 0.0
26/09:00am 10.0 7.4 6.2 77 1.8 WNW 9 13 5 7 1019.8 1019.4 0.0
26/08:30am 8.7 6.4 5.8 82 1.3 WNW 7 11 4 6 1019.4 1019.0 0.0
26/08:00am 7.3 4.4 4.6 83 1.2 WNW 9 13 5 7 1018.9 1018.5 0.0
26/07:30am 6.7 3.6 3.7 81 1.3 WNW 9 13 5 7 1018.3 1018.0 0.0
26/07:00am 7.6 5.1 4.0 78 1.6 WNW 6 7 3 4 1018.1 1017.8 0.0
26/06:30am 8.6 5.7 4.8 77 1.7 W 9 13 5 7 1017.7 1017.4 0.0
26/06:00am 9.9 6.7 5.1 72 2.2 WNW 11 13 6 7 1017.5 1017.2 0.0
26/05:30am 10.8 7.8 5.8 71 2.3 WSW 11 15 6 8 1017.1 1016.7 0.0
26/05:00am 11.2 8.0 5.1 66 2.8 W 11 17 6 9 1016.8 1016.4 0.0
26/04:30am 11.6 7.5 4.6 62 3.2 WSW 15 20 8 11 1016.4 1016.0 0.0
26/04:00am 12.2 8.5 4.4 59 3.6 WSW 13 17 7 9 1016.3 1015.9 0.0
26/03:30am 12.7 7.6 4.2 56 3.9 W 20 28 11 15 1016.2 1015.8 0.0
26/03:00am 10.4 6.9 1.2 53 3.8 N 9 11 5 6 1016.0 1015.6 0.0
26/02:30am 12.1 8.3 1.7 49 4.5 N 11 17 6 9 1016.1 1015.7 0.0
26/02:00am 11.1 7.0 2.2 54 3.8 NW 13 15 7 8 1015.7 1015.3 0.0
26/01:30am 7.9 4.0 1.1 62 2.8 WNW 11 11 6 6 1016.0 1015.6 0.0
26/01:00am 7.0 3.1 1.1 66 2.4 WNW 11 13 6 7 1015.9 1015.5 0.0
26/12:30am 7.4 4.1 0.2 60 2.9 WNW 7 9 4 5 1016.2 1015.8 0.0
26/12:00am 7.9 4.6 0.2 58 3.1 WNW 7 11 4 6 1016.2 1015.8 0.0
 
Date/Time
EDT
Temp
°C
App
Temp
°C
Dew
Point
Rel
Hum
%
Delta-T
°C
Wind Press
QNH
hPa
Press
MSL
hPa
Rain
since 9 am
mm
Dir
 
Spd
km/h
Gust
km/h
Spd
kts
Gust
kts
25/11:30pm 9.1 6.0 0.0 53 3.7 WNW 6 7 3 4 1016.3 1015.9 0.0
25/11:00pm 8.4 4.6 -0.6 53 3.5 WNW 9 9 5 5 1016.1 1015.7 0.0
25/10:30pm 12.5 9.3 -0.4 41 5.3 WNW 6 7 3 4 1016.1 1015.7 0.0
25/10:00pm 14.0 10.2 -0.4 37 6.0 WNW 9 13 5 7 1016.0 1015.6 0.0

Other Formats:

Comma delimited format used in spreadsheet applications
http://www.bom.gov.au/fwo/IDV60801/IDV60801.94874.axf

JavaScript Object Notation format (JSON) in row-major order
http://www.bom.gov.au/fwo/IDV60801/IDV60801.94874.json